createdAt,value
2023-11-15T00:00:21.448Z,64.78
2023-11-15T00:01:23.388Z,55.11
2023-11-15T00:02:22.436Z,65.74
2023-11-15T00:03:22.649Z,56.56
2023-11-15T00:04:22.394Z,63.65
2023-11-15T00:05:22.399Z,66.39
2023-11-15T00:06:22.439Z,64.29
2023-11-15T00:07:22.331Z,53.50
2023-11-15T00:08:22.356Z,64.29
2023-11-15T00:09:22.334Z,64.61
2023-11-15T00:10:22.294Z,68.16
2023-11-15T00:11:22.344Z,67.03
2023-11-15T00:12:22.272Z,60.91
2023-11-15T00:13:22.253Z,58.65
2023-11-15T00:14:22.293Z,62.04
2023-11-15T00:15:22.244Z,56.40
2023-11-15T00:16:22.354Z,60.10
2023-11-15T00:17:22.330Z,55.43
2023-11-15T00:18:22.266Z,55.59
2023-11-15T00:19:22.205Z,58.97
2023-11-15T00:20:22.194Z,61.39
2023-11-15T00:21:22.150Z,62.36
2023-11-15T00:22:22.149Z,55.59
2023-11-15T00:23:22.424Z,62.20
2023-11-15T00:24:22.121Z,58.17
2023-11-15T00:25:22.100Z,67.19
2023-11-15T00:26:22.350Z,58.97
2023-11-15T00:27:22.085Z,55.91
2023-11-15T00:28:22.067Z,57.52
2023-11-15T00:29:22.100Z,64.13
2023-11-15T00:30:22.047Z,59.46
2023-11-15T00:31:22.029Z,57.69
2023-11-15T00:32:22.106Z,54.95
2023-11-15T00:33:22.058Z,61.55
2023-11-15T00:34:22.022Z,59.14
2023-11-15T00:35:22.016Z,53.50
2023-11-15T00:36:22.026Z,56.88
2023-11-15T00:37:21.954Z,51.88
2023-11-15T00:38:21.975Z,57.69
2023-11-15T00:39:21.948Z,53.98
2023-11-15T00:40:21.932Z,57.04
2023-11-15T00:41:21.924Z,54.46
2023-11-15T00:42:21.917Z,53.66
2023-11-15T00:43:21.873Z,58.81
2023-11-15T00:44:21.933Z,53.66
2023-11-15T00:45:21.844Z,63.81
2023-11-15T00:46:21.868Z,63.49
2023-11-15T00:47:21.883Z,58.65
2023-11-15T00:48:21.828Z,65.90
2023-11-15T00:49:21.812Z,63.97
2023-11-15T00:50:21.825Z,54.30
2023-11-15T00:51:21.789Z,62.04
2023-11-15T00:52:21.780Z,63.97
2023-11-15T00:53:21.793Z,53.17
2023-11-15T00:54:21.741Z,60.42
2023-11-15T00:55:21.744Z,54.79
2023-11-15T00:56:21.764Z,53.98
2023-11-15T00:57:21.701Z,59.30
2023-11-15T00:58:21.715Z,68.64
2023-11-15T00:59:21.708Z,60.59
2023-11-15T01:00:21.664Z,59.14
2023-11-15T01:01:21.650Z,61.07
2023-11-15T01:02:21.719Z,57.36
2023-11-15T01:03:21.726Z,52.53
2023-11-15T01:04:21.690Z,51.56
2023-11-15T01:05:21.638Z,52.37
2023-11-15T01:06:21.581Z,56.24
2023-11-15T01:07:21.580Z,55.27
2023-11-15T01:08:21.657Z,55.11
2023-11-15T01:09:21.563Z,54.30
2023-11-15T01:10:21.532Z,59.46
2023-11-15T01:11:21.590Z,64.29
2023-11-15T01:12:21.571Z,64.78
2023-11-15T01:13:21.512Z,57.36
2023-11-15T01:14:21.561Z,60.75
2023-11-15T01:15:21.474Z,60.42
2023-11-15T01:16:22.393Z,52.21
2023-11-15T01:17:22.183Z,53.66
2023-11-15T01:18:21.510Z,64.94
2023-11-15T01:41:28.441Z,56.56
2023-11-15T01:42:30.152Z,60.59
2023-11-15T01:43:29.618Z,68.48
2023-11-15T01:44:30.184Z,60.59
2023-11-15T01:45:36.540Z,58.01
2023-11-15T01:46:29.456Z,57.85
2023-11-15T01:47:29.592Z,56.24
2023-11-15T01:48:58.671Z,57.04
2023-11-15T01:49:29.554Z,58.33
2023-11-15T01:50:41.601Z,59.30
2023-11-15T02:18:16.990Z,61.07
2023-11-15T02:19:17.754Z,58.97
2023-11-15T02:20:17.892Z,60.26
2023-11-15T02:22:15.223Z,62.20
2023-11-15T02:22:20.675Z,64.78
2023-11-15T02:33:18.585Z,64.45
2023-11-15T02:33:24.145Z,65.10
2023-11-15T02:34:24.053Z,71.22
2023-11-15T02:35:24.087Z,72.19
2023-11-15T02:36:24.056Z,63.65
2023-11-15T02:37:24.690Z,54.79
2023-11-15T02:38:24.250Z,58.33
2023-11-15T02:39:24.246Z,54.30
2023-11-15T02:40:27.372Z,58.33
2023-11-15T02:41:23.987Z,51.56
2023-11-15T02:42:24.128Z,54.46
2023-11-15T02:43:36.264Z,65.58
2023-11-15T02:44:38.429Z,63.00
2023-11-15T02:45:39.913Z,64.94
2023-11-15T03:08:02.048Z,66.55
2023-11-15T03:09:03.052Z,74.28
2023-11-15T03:10:31.856Z,74.77
2023-11-15T03:15:48.822Z,62.04
2023-11-15T03:16:49.750Z,65.58
2023-11-15T03:17:49.991Z,64.45
2023-11-15T03:18:49.628Z,64.29
2023-11-15T03:19:50.789Z,70.90
2023-11-15T03:32:31.613Z,63.65
2023-11-15T03:33:21.501Z,63.00
2023-11-15T03:34:21.385Z,66.06
2023-11-15T03:35:21.333Z,69.93
2023-11-15T03:41:35.600Z,61.55
2023-11-15T03:42:08.178Z,60.10
2023-11-15T03:43:08.086Z,65.26
2023-11-15T03:44:08.033Z,68.00
2023-11-15T03:45:08.080Z,62.20
2023-11-15T03:46:17.959Z,62.68
2023-11-15T03:47:08.658Z,65.58
2023-11-15T04:23:23.447Z,62.68
2023-11-15T04:23:56.380Z,62.52
2023-11-15T04:25:00.119Z,63.97
2023-11-15T04:25:55.397Z,64.29
2023-11-15T04:26:55.788Z,62.84
2023-11-15T04:27:55.488Z,66.87
2023-11-15T04:28:55.122Z,65.90
2023-11-15T04:30:00.106Z,61.87
2023-11-15T04:30:55.076Z,64.29
2023-11-15T04:31:55.411Z,64.61
2023-11-15T04:32:55.123Z,70.42
2023-11-15T04:33:55.283Z,60.75
2023-11-15T04:34:55.044Z,74.77
2023-11-15T04:35:55.113Z,71.38
2023-11-15T04:36:55.016Z,57.69
2023-11-15T04:37:55.007Z,69.13
2023-11-15T04:38:55.210Z,65.10
2023-11-15T04:39:54.974Z,64.94
2023-11-15T04:40:54.948Z,68.16
2023-11-15T04:41:55.004Z,64.94
2023-11-15T04:42:54.941Z,61.87
2023-11-15T04:43:54.915Z,71.54
2023-11-15T04:44:54.949Z,72.67
2023-11-15T04:45:54.944Z,70.25
2023-11-15T04:46:54.885Z,70.74
2023-11-15T04:47:54.967Z,69.93
2023-11-15T04:48:54.868Z,69.13
2023-11-15T04:49:54.882Z,73.48
2023-11-15T04:50:54.887Z,71.22
2023-11-15T04:51:54.849Z,65.74
2023-11-15T04:52:58.359Z,64.94
2023-11-15T04:53:54.856Z,67.19
2023-11-15T04:54:54.796Z,66.71
2023-11-15T04:55:54.768Z,70.74
2023-11-15T04:56:54.832Z,68.00
2023-11-15T04:57:54.781Z,74.60
2023-11-15T04:58:54.742Z,66.87
2023-11-15T04:59:54.753Z,72.67
2023-11-15T05:00:54.708Z,62.68
2023-11-15T05:01:54.687Z,62.84
2023-11-15T05:02:54.784Z,70.09
2023-11-15T05:03:54.815Z,64.94
2023-11-15T05:04:54.736Z,62.52
2023-11-15T05:05:54.676Z,63.81
2023-11-15T05:06:55.100Z,67.03
2023-11-15T05:07:54.624Z,68.80
2023-11-15T05:08:54.626Z,69.13
2023-11-15T05:09:54.615Z,65.90
2023-11-15T05:10:54.605Z,64.45
2023-11-15T05:11:54.599Z,64.94
2023-11-15T05:12:54.572Z,69.77
2023-11-15T05:13:54.800Z,65.90
2023-11-15T05:14:54.548Z,71.06
2023-11-15T05:15:54.565Z,68.48
2023-11-15T05:16:54.516Z,68.48
2023-11-15T05:17:54.562Z,80.57
2023-11-15T05:18:54.659Z,65.26
2023-11-15T05:19:54.471Z,78.47
2023-11-15T05:20:56.846Z,67.03
2023-11-15T05:21:54.668Z,68.80
2023-11-15T05:22:54.478Z,66.87
2023-11-15T05:23:55.283Z,67.03
2023-11-15T05:25:16.827Z,68.00
2023-11-15T05:29:27.319Z,69.13
2023-11-15T05:48:41.320Z,69.93
2023-11-15T05:48:46.850Z,73.64
2023-11-15T05:50:02.256Z,68.32
2023-11-15T05:50:46.769Z,72.99
2023-11-15T05:51:46.995Z,75.89
2023-11-15T05:52:47.746Z,73.80
2023-11-15T05:54:13.545Z,69.29
2023-11-15T05:54:46.894Z,72.35
2023-11-15T05:55:46.667Z,70.58
2023-11-15T05:56:47.310Z,71.87
2023-11-15T05:57:49.386Z,69.13
2023-11-15T05:58:46.650Z,64.29
2023-11-15T05:59:46.671Z,70.74
2023-11-15T06:00:46.610Z,68.64
2023-11-15T06:01:46.620Z,69.61
2023-11-15T06:02:46.633Z,75.73
2023-11-15T06:03:46.869Z,70.25
2023-11-15T06:04:46.555Z,68.64
2023-11-15T06:05:46.564Z,70.25
2023-11-15T06:06:46.779Z,71.87
2023-11-15T06:07:46.516Z,68.80
2023-11-15T06:08:46.543Z,71.06
2023-11-15T06:09:46.494Z,75.89
2023-11-15T06:10:47.096Z,68.96
2023-11-15T06:11:47.187Z,70.58
2023-11-15T06:12:49.567Z,70.25
2023-11-15T06:13:46.451Z,69.61
2023-11-15T06:14:46.419Z,74.77
2023-11-15T06:15:46.377Z,73.64
2023-11-15T06:16:48.268Z,69.45
2023-11-15T06:17:46.371Z,72.83
2023-11-15T06:18:46.389Z,72.83
2023-11-15T06:19:52.049Z,74.44
2023-11-15T06:20:46.339Z,71.70
2023-11-15T06:21:46.275Z,72.03
2023-11-15T06:22:46.275Z,66.06
2023-11-15T06:23:46.314Z,70.90
2023-11-15T06:24:46.248Z,70.58
2023-11-15T06:25:46.375Z,88.14
2023-11-15T06:26:46.259Z,71.38
2023-11-15T06:27:46.193Z,78.15
2023-11-15T06:28:46.239Z,70.25
2023-11-15T06:29:46.451Z,62.68
2023-11-15T06:30:46.258Z,72.67
2023-11-15T06:31:46.150Z,70.42
2023-11-15T06:32:46.557Z,68.00
2023-11-15T06:33:46.215Z,74.77
2023-11-15T06:34:46.129Z,73.64
2023-11-15T06:35:46.278Z,70.42
2023-11-15T06:36:46.080Z,72.83
2023-11-15T06:37:46.090Z,73.15
2023-11-15T06:38:46.074Z,74.77
2023-11-15T06:39:46.076Z,73.15
2023-11-15T06:40:46.063Z,73.32
2023-11-15T06:41:46.040Z,71.06
2023-11-15T06:42:46.023Z,72.51
2023-11-15T06:43:46.018Z,72.99
2023-11-15T06:44:46.058Z,71.54
2023-11-15T06:45:45.982Z,72.03
2023-11-15T06:46:46.016Z,72.03
2023-11-15T06:47:46.031Z,68.96
2023-11-15T06:48:46.011Z,75.41
2023-11-15T06:49:45.921Z,72.03
2023-11-15T06:50:45.962Z,68.96
2023-11-15T06:51:45.897Z,72.51
2023-11-15T06:52:45.901Z,73.80
2023-11-15T06:53:45.972Z,72.35
2023-11-15T06:54:45.868Z,75.57
2023-11-15T06:55:46.020Z,72.83
2023-11-15T06:56:45.919Z,76.38
2023-11-15T06:57:45.833Z,73.64
2023-11-15T06:58:45.898Z,79.12
2023-11-15T06:59:45.852Z,70.90
2023-11-15T07:00:45.816Z,69.93
2023-11-15T07:01:45.775Z,70.58
2023-11-15T07:02:45.828Z,70.09
2023-11-15T07:05:19.242Z,70.74
2023-11-15T07:05:26.555Z,67.84
2023-11-15T07:06:24.565Z,77.34
2023-11-15T07:07:24.578Z,71.87
2023-11-15T07:08:24.564Z,66.23
2023-11-15T07:09:24.548Z,70.90
2023-11-15T07:10:24.522Z,69.77
2023-11-15T07:11:24.688Z,73.64
2023-11-15T07:12:24.502Z,62.20
2023-11-15T07:13:24.488Z,70.09
2023-11-15T07:14:24.468Z,70.09
2023-11-15T07:15:24.460Z,72.99
2023-11-15T07:16:24.510Z,68.48
2023-11-15T07:17:24.498Z,70.58
2023-11-15T07:18:27.300Z,70.25
2023-11-15T07:19:24.417Z,72.19
2023-11-15T07:23:32.652Z,73.15
2023-11-15T07:24:31.729Z,66.87
2023-11-15T07:25:31.709Z,70.74
2023-11-15T07:26:38.668Z,67.19
2023-11-15T07:27:34.036Z,71.06
2023-11-15T07:28:31.726Z,68.80
2023-11-15T07:29:31.683Z,69.45
2023-11-15T07:30:31.673Z,69.93
2023-11-15T07:32:49.804Z,68.96
2023-11-15T07:35:01.891Z,68.16
2023-11-15T07:38:20.517Z,71.38
2023-11-15T07:38:27.072Z,68.96
2023-11-15T07:38:33.418Z,68.48
2023-11-15T07:45:14.242Z,74.28
2023-11-15T07:46:46.279Z,70.90
2023-11-15T08:02:55.466Z,68.48
2023-11-15T08:03:35.508Z,67.68
2023-11-15T08:04:33.758Z,70.09
2023-11-15T08:09:09.132Z,69.93
2023-11-15T08:09:14.511Z,68.00
2023-11-15T08:10:14.775Z,66.71
2023-11-15T08:11:38.057Z,73.48
2023-11-15T08:14:34.915Z,72.83
2023-11-15T08:15:26.338Z,68.48
2023-11-15T11:17:27.777Z,72.67
2023-11-15T11:18:07.266Z,74.28
2023-11-15T11:19:07.086Z,70.25
2023-11-15T11:20:08.367Z,68.00
2023-11-15T11:21:10.908Z,71.06
2023-11-15T11:22:07.178Z,71.22
2023-11-15T11:23:34.792Z,68.96
2023-11-15T11:24:26.895Z,71.87
2023-11-15T11:25:51.859Z,71.54
2023-11-15T11:26:07.244Z,73.32
2023-11-15T11:27:07.027Z,69.45
2023-11-15T11:31:43.578Z,70.25
2023-11-15T11:50:34.002Z,72.35
2023-11-15T11:56:41.494Z,70.90
2023-11-15T12:21:29.888Z,63.49
2023-11-15T12:23:31.341Z,72.51
2023-11-15T12:35:44.240Z,64.45
